createdAt,value
2022-09-29T00:00:27.112Z,16.17
2022-09-29T00:02:54.139Z,17.60
2022-09-29T00:05:21.341Z,17.13
2022-09-29T00:07:48.135Z,14.13
2022-09-29T00:10:14.872Z,14.60
2022-09-29T00:12:41.772Z,15.73
2022-09-29T00:15:08.849Z,16.37
2022-09-29T00:17:35.624Z,14.17
2022-09-29T00:20:02.349Z,13.10
2022-09-29T00:22:28.988Z,13.63
2022-09-29T00:24:55.749Z,15.73
2022-09-29T00:27:22.436Z,14.20
2022-09-29T00:29:49.697Z,14.50
2022-09-29T00:32:16.446Z,15.40
2022-09-29T00:34:43.121Z,14.97
2022-09-29T00:37:09.858Z,15.10
2022-09-29T00:39:36.565Z,13.53
2022-09-29T00:42:03.837Z,15.70
2022-09-29T00:45:00.068Z,14.93
2022-09-29T00:47:28.506Z,12.93
2022-09-29T00:50:07.176Z,12.37
2022-09-29T00:52:46.313Z,12.83
2022-09-29T00:55:34.862Z,15.03
2022-09-29T00:58:19.823Z,14.73
2022-09-29T01:00:46.734Z,13.43
2022-09-29T01:03:17.247Z,15.90
2022-09-29T01:05:49.112Z,14.10
2022-09-29T01:08:30.810Z,16.10
2022-09-29T01:10:57.762Z,13.87
2022-09-29T01:13:25.213Z,16.30
2022-09-29T01:15:52.041Z,16.90
2022-09-29T01:18:19.005Z,17.93
2022-09-29T01:21:26.666Z,22.27
2022-09-29T01:24:03.737Z,21.07
2022-09-29T01:26:33.593Z,18.70
2022-09-29T01:29:40.250Z,19.53
2022-09-29T01:32:21.993Z,24.70
2022-09-29T01:35:19.584Z,19.43
2022-09-29T01:38:24.242Z,22.47
2022-09-29T01:41:10.356Z,23.17
2022-09-29T01:43:48.503Z,24.37
2022-09-29T01:46:37.697Z,22.87
2022-09-29T01:49:06.084Z,25.17
2022-09-29T01:51:41.649Z,25.47
2022-09-29T01:54:28.932Z,26.20
2022-09-29T01:57:12.415Z,27.23
2022-09-29T01:59:39.143Z,25.97
2022-09-29T02:02:13.002Z,25.67
2022-09-29T02:04:53.846Z,26.90
2022-09-29T02:07:34.679Z,29.50
2022-09-29T02:10:05.382Z,24.87
2022-09-29T02:12:34.837Z,25.23
2022-09-29T02:15:03.933Z,24.97
2022-09-29T02:17:35.327Z,27.67
2022-09-29T02:20:03.010Z,28.53
2022-09-29T02:22:29.730Z,29.87
2022-09-29T02:24:59.293Z,28.70
2022-09-29T02:27:28.690Z,24.80
2022-09-29T02:29:57.482Z,29.83
2022-09-29T02:32:24.190Z,30.23
2022-09-29T02:34:54.334Z,28.20
2022-09-29T02:37:58.838Z,28.57
2022-09-29T02:40:57.163Z,27.30
2022-09-29T02:43:54.466Z,29.43
2022-09-29T02:46:40.177Z,27.63
2022-09-29T02:49:28.923Z,26.93
2022-09-29T02:52:05.173Z,26.83
2022-09-29T02:55:10.344Z,27.20
2022-09-29T02:57:49.457Z,27.77
2022-09-29T03:00:18.047Z,29.03
2022-09-29T03:02:45.512Z,29.50
2022-09-29T03:05:15.894Z,28.70
2022-09-29T03:07:42.916Z,31.40
2022-09-29T03:10:11.282Z,26.03
2022-09-29T03:12:38.763Z,25.40
2022-09-29T03:15:07.277Z,27.90
2022-09-29T03:17:34.291Z,27.60
2022-09-29T03:20:01.197Z,25.07
2022-09-29T03:22:27.841Z,23.80
2022-09-29T03:24:54.523Z,23.10
2022-09-29T03:27:21.228Z,25.33
2022-09-29T03:29:47.958Z,23.77
2022-09-29T03:32:14.630Z,24.20
2022-09-29T03:34:41.314Z,22.53
2022-09-29T03:37:08.696Z,27.80
2022-09-29T03:39:35.369Z,25.63
2022-09-29T03:42:02.099Z,24.93
2022-09-29T03:44:28.871Z,26.10
2022-09-29T03:46:55.560Z,25.97
2022-09-29T03:49:22.238Z,29.77
2022-09-29T03:51:49.208Z,29.20
2022-09-29T03:54:15.900Z,24.60
2022-09-29T03:56:42.736Z,25.43
2022-09-29T03:59:12.107Z,24.97
2022-09-29T04:01:39.184Z,22.80
2022-09-29T04:04:06.996Z,24.87
2022-09-29T04:06:34.017Z,32.20
2022-09-29T04:09:00.852Z,25.13
2022-09-29T04:11:28.300Z,24.77
2022-09-29T04:13:55.006Z,33.03
2022-09-29T04:16:21.799Z,26.13
2022-09-29T04:18:48.539Z,29.13
2022-09-29T04:21:16.770Z,26.13
2022-09-29T04:23:43.776Z,27.47
2022-09-29T04:26:10.779Z,28.40
2022-09-29T04:28:37.914Z,25.93
2022-09-29T04:31:05.419Z,23.97
2022-09-29T04:33:32.498Z,23.90
2022-09-29T04:36:00.334Z,28.80
2022-09-29T04:38:27.413Z,29.87
2022-09-29T04:40:54.289Z,27.33
2022-09-29T04:43:21.003Z,27.47
2022-09-29T04:45:47.792Z,28.73
2022-09-29T04:48:14.696Z,32.23
2022-09-29T04:50:42.124Z,27.07
2022-09-29T04:53:11.006Z,27.13
2022-09-29T04:55:41.559Z,27.57
2022-09-29T04:58:08.254Z,30.83
2022-09-29T05:00:35.260Z,31.13
2022-09-29T05:03:02.004Z,27.20
2022-09-29T05:05:28.732Z,26.80
2022-09-29T05:07:55.403Z,25.00
2022-09-29T05:10:22.154Z,25.27
2022-09-29T05:12:50.516Z,25.93
2022-09-29T05:15:24.970Z,30.80
2022-09-29T05:17:53.067Z,25.13
2022-09-29T05:20:19.784Z,30.43
2022-09-29T05:22:46.464Z,24.47
2022-09-29T05:25:13.155Z,24.57
2022-09-29T05:27:39.825Z,22.77
2022-09-29T05:30:07.012Z,22.93
2022-09-29T05:32:33.717Z,23.87
2022-09-29T05:35:00.918Z,22.73
2022-09-29T05:37:27.695Z,21.50
2022-09-29T05:39:54.447Z,26.97
2022-09-29T05:42:21.287Z,26.23
2022-09-29T05:44:47.980Z,27.60
2022-09-29T05:47:14.724Z,28.67
2022-09-29T05:49:42.226Z,29.83
2022-09-29T05:52:08.977Z,27.70
2022-09-29T05:54:35.674Z,30.97
2022-09-29T05:57:02.447Z,34.70
2022-09-29T05:59:29.120Z,31.87
2022-09-29T06:01:55.924Z,34.23
2022-09-29T06:04:22.679Z,34.57
2022-09-29T06:06:49.402Z,34.30
2022-09-29T06:09:16.157Z,37.47
2022-09-29T06:11:42.874Z,39.33
2022-09-29T06:14:09.589Z,39.77
2022-09-29T06:16:36.662Z,41.80
2022-09-29T06:19:04.823Z,38.93
2022-09-29T06:21:33.715Z,40.07
2022-09-29T06:24:00.590Z,37.97
2022-09-29T06:26:28.333Z,39.87
2022-09-29T06:28:56.075Z,46.03
2022-09-29T06:31:25.334Z,42.53
2022-09-29T06:33:52.634Z,42.77
2022-09-29T06:36:46.760Z,43.37
2022-09-29T06:39:14.808Z,44.40
2022-09-29T06:41:43.349Z,46.00
2022-09-29T06:44:10.292Z,49.80
2022-09-29T06:46:37.067Z,37.77
2022-09-29T06:49:03.868Z,38.50
2022-09-29T06:51:42.639Z,37.67
2022-09-29T06:54:16.926Z,32.37
2022-09-29T06:56:47.993Z,34.37
2022-09-29T06:59:14.703Z,36.07
2022-09-29T07:01:41.581Z,36.83
2022-09-29T07:04:08.573Z,31.20
2022-09-29T07:06:35.463Z,30.10
2022-09-29T08:07:14.895Z,32.43
2022-09-29T08:09:41.652Z,30.37
2022-09-29T08:12:08.834Z,26.10
2022-09-29T08:14:35.819Z,25.50
2022-09-29T08:17:02.620Z,24.03
2022-09-29T08:19:29.455Z,24.00
2022-09-29T08:21:56.723Z,24.60
2022-09-29T08:24:23.631Z,25.93
2022-09-29T08:26:50.638Z,26.53
2022-09-29T08:29:17.772Z,26.30
2022-09-29T08:31:45.650Z,22.53
2022-09-29T08:34:13.891Z,22.03
2022-09-29T08:36:41.081Z,22.47
2022-09-29T08:39:10.149Z,26.70
2022-09-29T08:42:02.572Z,27.13
2022-09-29T08:44:43.805Z,24.43
2022-09-29T08:47:15.778Z,23.73
2022-09-29T09:03:41.079Z,26.80
2022-09-29T09:06:15.052Z,26.83
2022-09-29T09:09:10.362Z,27.20
2022-09-29T09:12:05.294Z,25.90
2022-09-29T09:15:07.536Z,25.53
2022-09-29T09:17:53.307Z,30.67
2022-09-29T09:20:34.609Z,25.97
2022-09-29T09:23:20.642Z,25.57
2022-09-29T09:26:02.179Z,26.27
2022-09-29T09:29:04.737Z,23.50
2022-09-29T09:31:40.607Z,25.00
2022-09-29T09:34:20.561Z,19.87
2022-09-29T09:37:07.278Z,19.83
2022-09-29T09:39:43.349Z,22.70
2022-09-29T09:42:20.371Z,23.30
2022-09-29T09:44:55.228Z,20.17
2022-09-29T09:47:28.741Z,19.17
2022-09-29T09:50:03.258Z,18.37
2022-09-29T09:52:44.573Z,18.60
2022-09-29T09:55:16.947Z,17.27
2022-09-29T09:58:02.764Z,19.90
2022-09-29T10:00:35.761Z,15.20
2022-09-29T10:03:06.023Z,17.23
2022-09-29T10:05:40.035Z,15.33
2022-09-29T10:08:13.134Z,12.63
2022-09-29T10:10:56.521Z,16.47
2022-09-29T10:13:29.936Z,14.00
2022-09-29T10:16:17.245Z,17.20
2022-09-29T10:18:47.198Z,16.77
2022-09-29T10:21:43.137Z,15.90
2022-09-29T10:24:23.761Z,14.37
2022-09-29T10:26:52.987Z,12.53
2022-09-29T10:29:31.237Z,12.27
2022-09-29T10:32:05.885Z,12.67
2022-09-29T10:34:34.713Z,12.37
2022-09-29T10:37:17.687Z,14.20
2022-09-29T10:39:48.202Z,14.97
2022-09-29T10:42:31.833Z,13.83
2022-09-29T10:45:11.654Z,11.47
2022-09-29T10:47:38.815Z,13.57
2022-09-29T10:50:24.315Z,12.80
2022-09-29T10:52:58.003Z,11.80
2022-09-29T10:55:34.186Z,11.30
2022-09-29T10:58:08.528Z,12.43
2022-09-29T11:00:38.285Z,11.80
2022-09-29T11:03:17.073Z,13.37
2022-09-29T11:05:54.293Z,11.20
2022-09-29T11:08:25.895Z,13.00
2022-09-29T11:11:21.816Z,12.17
2022-09-29T11:13:49.203Z,12.03
2022-09-29T11:16:33.730Z,10.57
2022-09-29T11:19:11.342Z,10.73
2022-09-29T11:21:53.150Z,15.20
2022-09-29T11:24:45.473Z,12.43
2022-09-29T11:27:28.568Z,13.40
2022-09-29T11:30:04.147Z,11.00
2022-09-29T11:32:44.976Z,13.27
2022-09-29T11:35:38.881Z,14.87
2022-09-29T11:38:21.786Z,20.23
2022-09-29T11:41:36.054Z,12.70
2022-09-29T11:44:05.513Z,12.77
2022-09-29T11:46:46.027Z,15.03
2022-09-29T11:49:37.973Z,12.93
2022-09-29T11:52:07.358Z,12.67
2022-09-29T11:54:47.798Z,10.17
2022-09-29T11:57:36.493Z,11.57
2022-09-29T12:00:09.678Z,14.03
2022-09-29T12:03:07.262Z,15.10
2022-09-29T12:05:44.789Z,12.47
2022-09-29T12:08:32.556Z,12.20
2022-09-29T12:11:40.520Z,11.53
2022-09-29T12:14:04.636Z,10.77
2022-09-29T12:16:35.883Z,11.07
2022-09-29T12:19:10.691Z,11.43
2022-09-29T12:21:51.498Z,12.97
2022-09-29T12:24:21.509Z,12.60
2022-09-29T12:26:50.522Z,13.50
2022-09-29T12:29:46.383Z,12.20
2022-09-29T12:32:31.678Z,14.00
2022-09-29T12:35:21.794Z,12.47
2022-09-29T12:38:08.170Z,13.00
2022-09-29T12:40:41.514Z,13.37
2022-09-29T12:43:33.259Z,14.17
2022-09-29T12:46:25.466Z,14.43
2022-09-29T12:48:58.590Z,13.17
2022-09-29T12:51:47.309Z,12.95
2022-09-29T12:54:24.491Z,12.70
2022-09-29T12:57:03.041Z,12.45
2022-09-29T12:59:55.450Z,13.13
2022-09-29T13:02:31.357Z,12.85
2022-09-29T13:05:21.093Z,11.70
2022-09-29T13:08:14.695Z,11.80
2022-09-29T13:11:03.340Z,12.47
2022-09-29T13:13:45.108Z,12.90
2022-09-29T13:16:21.038Z,12.37
2022-09-29T13:19:55.612Z,9.82
2022-09-29T13:22:42.466Z,11.77
2022-09-29T13:25:28.626Z,11.05
2022-09-29T13:27:57.310Z,10.47
2022-09-29T13:30:37.489Z,14.30
2022-09-29T13:33:22.539Z,11.00
2022-09-29T13:35:50.834Z,11.73
2022-09-29T13:38:22.046Z,9.98
2022-09-29T13:41:23.183Z,10.37
2022-09-29T13:43:53.005Z,10.50
2022-09-29T13:46:31.581Z,9.00
2022-09-29T13:49:24.884Z,8.95
2022-09-29T13:52:23.457Z,11.45
2022-09-29T13:54:50.653Z,7.95
2022-09-29T13:57:23.807Z,8.05
2022-09-29T13:59:53.612Z,9.30
2022-09-29T14:02:41.423Z,6.53
2022-09-29T14:05:23.194Z,7.17
2022-09-29T14:07:56.063Z,7.60
2022-09-29T14:10:46.823Z,8.50
2022-09-29T14:13:23.678Z,9.07
2022-09-29T14:15:53.165Z,9.35
2022-09-29T14:18:26.126Z,8.50
2022-09-29T14:21:00.724Z,8.52
2022-09-29T14:23:52.003Z,8.20
2022-09-29T14:26:48.829Z,9.23
2022-09-29T14:29:25.720Z,7.97
2022-09-29T14:31:57.432Z,8.95
2022-09-29T14:34:27.549Z,7.60
2022-09-29T14:36:56.727Z,7.75
2022-09-29T14:39:27.190Z,10.77
2022-09-29T14:41:54.404Z,11.80
2022-09-29T14:44:49.117Z,15.27
2022-09-29T14:48:02.111Z,11.93
2022-09-29T14:51:12.652Z,9.27
2022-09-29T14:54:04.478Z,11.63
2022-09-29T14:56:33.375Z,9.53
2022-09-29T14:59:10.966Z,10.83
2022-09-29T15:01:41.717Z,10.23
2022-09-29T15:04:14.427Z,12.18
2022-09-29T15:06:49.767Z,12.87
2022-09-29T15:09:24.846Z,9.80
2022-09-29T15:11:54.172Z,12.07
2022-09-29T15:14:20.904Z,11.27
2022-09-29T15:16:57.574Z,12.90
2022-09-29T15:19:41.747Z,11.50
2022-09-29T15:22:23.099Z,10.90
2022-09-29T15:25:10.320Z,12.97
2022-09-29T15:27:40.134Z,10.73
2022-09-29T15:30:15.942Z,9.50
2022-09-29T15:32:43.989Z,11.87
2022-09-29T15:35:16.711Z,11.37
2022-09-29T15:38:15.336Z,12.97
2022-09-29T15:40:42.089Z,11.10
2022-09-29T15:43:23.996Z,14.20
2022-09-29T15:45:59.820Z,10.77
2022-09-29T15:48:28.399Z,11.73
2022-09-29T15:50:56.048Z,14.07
2022-09-29T15:53:24.975Z,12.47
2022-09-29T15:55:53.360Z,14.73
2022-09-29T15:58:26.241Z,20.60
2022-09-29T16:01:07.582Z,27.93
2022-09-29T16:04:01.812Z,27.20
2022-09-29T16:06:35.693Z,24.07
2022-09-29T16:09:05.524Z,40.00
2022-09-29T16:11:36.064Z,51.57
2022-09-29T16:14:04.698Z,45.07
2022-09-29T16:16:44.430Z,40.10
2022-09-29T16:19:16.666Z,41.90
2022-09-29T16:21:44.479Z,54.50
2022-09-29T16:24:20.129Z,48.10
2022-09-29T16:26:52.484Z,46.37
2022-09-29T16:29:19.326Z,49.67
2022-09-29T16:31:48.260Z,45.17
2022-09-29T16:34:21.258Z,51.57
2022-09-29T16:36:49.640Z,48.17
2022-09-29T16:39:20.147Z,47.13
2022-09-29T16:41:55.866Z,55.70
2022-09-29T16:44:30.278Z,127.63
2022-09-29T16:47:17.839Z,128.97
2022-09-29T16:49:56.195Z,110.97
2022-09-29T16:52:34.123Z,101.63
2022-09-29T16:55:28.263Z,94.77
2022-09-29T16:58:12.316Z,90.60
2022-09-29T17:00:39.478Z,82.17
2022-09-29T17:03:06.553Z,76.37
2022-09-29T17:05:40.293Z,65.83
2022-09-29T17:08:31.746Z,58.53
2022-09-29T17:10:58.483Z,67.47
2022-09-29T17:13:34.117Z,67.50
2022-09-29T17:16:02.016Z,92.83
2022-09-29T17:18:29.245Z,126.83
2022-09-29T17:20:56.078Z,117.83
2022-09-29T17:23:22.796Z,105.03
2022-09-29T17:25:50.225Z,88.23
2022-09-29T17:28:23.896Z,94.47
2022-09-29T17:30:51.833Z,107.10
2022-09-29T17:33:19.663Z,104.30
2022-09-29T17:35:57.657Z,90.13
2022-09-29T17:38:24.475Z,64.27
2022-09-29T17:40:56.940Z,46.17
2022-09-29T17:43:24.636Z,90.87
2022-09-29T17:45:54.515Z,119.93
2022-09-29T17:48:21.381Z,96.27
2022-09-29T17:50:50.830Z,86.73
2022-09-29T17:53:19.040Z,94.47
2022-09-29T17:55:51.181Z,105.83
2022-09-29T17:58:24.231Z,135.37
2022-09-29T18:00:52.933Z,135.50
2022-09-29T18:03:21.195Z,123.40
2022-09-29T18:05:56.502Z,119.67
2022-09-29T18:08:25.961Z,124.53
2022-09-29T18:10:54.871Z,112.13
2022-09-29T18:13:27.399Z,105.73
2022-09-29T18:15:55.552Z,100.60
2022-09-29T18:18:23.467Z,91.70
2022-09-29T18:20:50.853Z,91.87
2022-09-29T18:23:19.437Z,88.07
2022-09-29T18:25:48.228Z,78.63
2022-09-29T18:28:16.147Z,86.33
2022-09-29T18:30:45.389Z,116.50
2022-09-29T18:33:14.829Z,158.93
2022-09-29T18:35:43.722Z,222.73
2022-09-29T18:38:11.158Z,219.77
2022-09-29T18:40:39.454Z,243.50
2022-09-29T18:43:07.093Z,270.97
2022-09-29T18:45:38.124Z,282.87
2022-09-29T18:48:06.743Z,319.10
2022-09-29T18:50:42.920Z,344.63
2022-09-29T18:53:16.836Z,365.40
2022-09-29T18:55:44.081Z,358.27
2022-09-29T18:58:18.293Z,339.70
2022-09-29T19:00:50.051Z,337.07
2022-09-29T19:03:18.386Z,308.83
2022-09-29T19:05:45.854Z,294.30
2022-09-29T19:08:14.367Z,265.50
2022-09-29T19:10:47.195Z,243.93
2022-09-29T19:13:15.450Z,230.97
2022-09-29T19:15:43.683Z,265.00
2022-09-29T19:18:16.111Z,250.20
2022-09-29T19:20:42.927Z,250.53
2022-09-29T19:23:09.667Z,236.83
2022-09-29T19:25:37.956Z,228.33
2022-09-29T19:28:06.058Z,246.80
2022-09-29T19:30:38.422Z,231.63
2022-09-29T19:33:07.755Z,237.77
2022-09-29T19:35:35.191Z,238.30
2022-09-29T19:38:02.629Z,241.70
2022-09-29T19:40:34.379Z,221.80
2022-09-29T19:43:05.311Z,215.50
2022-09-29T19:45:40.158Z,202.27
2022-09-29T19:48:10.387Z,183.23
2022-09-29T19:50:55.820Z,142.80
2022-09-29T19:53:22.626Z,135.27
2022-09-29T19:55:49.542Z,103.70
2022-09-29T19:58:16.523Z,116.47
2022-09-29T20:00:43.246Z,114.03
2022-09-29T20:03:10.578Z,110.67
2022-09-29T20:05:37.982Z,103.90
2022-09-29T20:08:05.612Z,94.40
2022-09-29T20:10:32.798Z,92.83
2022-09-29T20:12:59.869Z,85.40
2022-09-29T20:15:27.040Z,81.87
2022-09-29T20:17:53.762Z,73.30
2022-09-29T20:20:22.873Z,71.97
2022-09-29T20:22:50.072Z,68.83
2022-09-29T20:25:17.037Z,68.03
2022-09-29T20:27:44.077Z,61.17
2022-09-29T20:30:11.149Z,56.37
2022-09-29T20:32:37.970Z,49.57
2022-09-29T20:35:05.564Z,49.10
2022-09-29T20:37:32.376Z,52.20
2022-09-29T20:40:00.368Z,47.23
2022-09-29T20:42:27.709Z,46.70
2022-09-29T20:44:56.234Z,45.90
2022-09-29T20:47:27.566Z,49.90
2022-09-29T20:49:56.428Z,54.07
2022-09-29T20:52:24.245Z,54.80
2022-09-29T20:54:50.951Z,58.97
2022-09-29T20:57:17.745Z,57.10
2022-09-29T20:59:44.478Z,54.03
2022-09-29T21:02:13.118Z,58.90
2022-09-29T21:04:42.331Z,54.20
2022-09-29T21:07:29.346Z,56.97
2022-09-29T21:09:56.247Z,61.30
2022-09-29T21:12:23.149Z,68.37
2022-09-29T21:14:49.924Z,79.30
2022-09-29T21:17:16.781Z,79.63
2022-09-29T21:19:43.569Z,83.50
2022-09-29T21:22:10.586Z,83.33
2022-09-29T21:24:39.070Z,81.37
2022-09-29T21:27:07.277Z,113.87
2022-09-29T21:29:34.150Z,158.03
2022-09-29T21:32:02.136Z,194.23
2022-09-29T21:34:29.177Z,191.87
2022-09-29T21:36:56.065Z,161.73
2022-09-29T21:39:22.956Z,150.03
2022-09-29T21:41:49.662Z,157.57
2022-09-29T21:44:19.445Z,144.30
2022-09-29T21:46:46.354Z,127.60
2022-09-29T21:49:16.258Z,112.10
2022-09-29T21:51:46.535Z,121.60
2022-09-29T21:54:15.939Z,118.87
2022-09-29T21:56:44.700Z,107.57
2022-09-29T21:59:14.987Z,103.33
2022-09-29T22:01:42.386Z,105.23
2022-09-29T22:04:10.617Z,112.10
2022-09-29T22:06:38.538Z,109.90
2022-09-29T22:09:07.974Z,107.30
2022-09-29T22:11:38.082Z,121.40
2022-09-29T22:14:06.097Z,131.60
2022-09-29T22:16:34.867Z,118.30
2022-09-29T22:21:51.838Z,116.93
2022-09-29T22:24:18.541Z,176.80
2022-09-29T22:26:45.286Z,188.30
2022-09-29T22:29:11.984Z,152.80
2022-09-29T22:31:40.419Z,138.37
2022-09-29T22:34:08.327Z,133.93
2022-09-29T22:36:35.403Z,129.70
2022-09-29T22:39:04.198Z,124.77
2022-09-29T22:41:31.441Z,121.27
2022-09-29T22:43:59.944Z,115.97
2022-09-29T22:46:28.593Z,120.90
2022-09-29T22:48:55.853Z,143.03
2022-09-29T22:51:22.601Z,155.50
2022-09-29T22:53:50.265Z,139.03
2022-09-29T22:56:22.448Z,132.30
2022-09-29T22:58:49.591Z,128.13
2022-09-29T23:01:18.242Z,125.10
2022-09-29T23:03:45.939Z,105.53
2022-09-29T23:06:13.907Z,102.13
2022-09-29T23:08:41.252Z,102.77
2022-09-29T23:11:08.761Z,102.13
2022-09-29T23:13:37.307Z,103.97
2022-09-29T23:16:12.395Z,112.27
2022-09-29T23:18:46.497Z,98.53
2022-09-29T23:21:17.734Z,110.33
2022-09-29T23:23:45.323Z,102.90
2022-09-29T23:26:12.158Z,98.03
2022-09-29T23:28:39.148Z,92.17
2022-09-29T23:31:07.310Z,91.47
2022-09-29T23:33:34.514Z,93.40
2022-09-29T23:36:13.422Z,92.10
2022-09-29T23:39:00.835Z,92.17
2022-09-29T23:41:30.136Z,89.20
2022-09-29T23:43:59.650Z,87.87
2022-09-29T23:46:32.092Z,98.07
2022-09-29T23:49:00.204Z,94.13
2022-09-29T23:51:33.829Z,93.77
2022-09-29T23:54:00.741Z,91.93
2022-09-29T23:56:28.171Z,86.00
2022-09-29T23:58:55.317Z,83.40
